Impacts TAF Board INFO
FOR SITUATIONAL AWARENESS. NOT TO BE USED FOR FLIGHT PLANNING PURPOSES.
IDs:

KSLC - Salt Lake City Intl, UT, US

Issued at 0521 UTC 16 Jan 2018
Updated at 0715 UTC 16 Jan 2018
Potential Impact None Slight Moderate High
Time<<17/08Z 17/09Z 17/10Z 17/11Z 17/12Z 17/13Z 17/14Z 17/15Z 17/16Z 17/17Z 17/18Z 17/19Z 17/20Z
Type PRVL PRVL PRVL PRVL
VIS >6 >6 >6 >6
CIG 100 100 100 100
Cover BKN BKN BKN BKN
FltCat VFR VFR VFR VFR
WX -- -- -- --
WDir 150 150 150 150
WSpd 5 5 5 5
WGst -- -- -- --

Raw TAF
KSLC 160521Z 1606/1712 16005KT P6SM FEW200
  FM161900 33005KT P6SM SCT100 BKN200
  FM170400 15005KT P6SM BKN100 BKN200


METAR Board
Radar Display
Forecast Discussion

FOR SITUATIONAL AWARENESS. NOT TO BE USED FOR FLIGHT PLANNING PURPOSES.